createdAt,value
2022-08-29T01:04:46.758Z,8.07
2022-08-29T01:09:42.252Z,6.45
2022-08-29T01:20:25.401Z,7.63
2022-08-29T01:25:23.830Z,7.82
2022-08-29T01:30:15.583Z,6.95
2022-08-29T01:45:21.104Z,9.00
2022-08-29T01:50:15.234Z,7.43
2022-08-29T01:55:07.550Z,7.30
2022-08-29T02:00:01.140Z,7.90
2022-08-29T02:04:53.424Z,7.35
2022-08-29T02:20:19.366Z,8.38
2022-08-29T02:25:30.509Z,8.90
2022-08-29T02:30:23.159Z,8.23
2022-08-29T02:40:31.800Z,8.90
2022-08-29T02:45:24.840Z,7.93
2022-08-29T02:50:17.551Z,7.35
2022-08-29T03:05:58.753Z,7.13
2022-08-29T03:10:50.483Z,8.70
2022-08-29T03:15:42.206Z,9.52
2022-08-29T03:20:37.521Z,7.53
2022-08-29T03:25:29.628Z,6.60
2022-08-29T03:30:24.046Z,8.40
2022-08-29T03:35:18.035Z,9.55
2022-08-29T03:40:10.653Z,9.45
2022-08-29T03:45:08.624Z,7.07
2022-08-29T06:08:18.548Z,7.15
2022-08-29T06:23:23.741Z,6.90
2022-08-29T06:28:24.062Z,5.65
2022-08-29T06:33:16.074Z,6.28
2022-08-29T06:38:13.314Z,5.68
2022-08-29T06:43:05.801Z,7.97
2022-08-29T06:47:57.642Z,6.00
2022-08-29T06:52:49.432Z,10.32
2022-08-29T06:57:44.730Z,6.55
2022-08-29T07:02:36.633Z,7.50
2022-08-29T07:07:28.872Z,6.53
2022-08-29T07:12:24.988Z,5.75
2022-08-29T07:17:25.851Z,6.38
2022-08-29T07:22:18.004Z,9.00
2022-08-29T07:27:12.625Z,6.93
2022-08-29T07:32:04.874Z,5.93
2022-08-29T07:36:56.659Z,8.18
2022-08-29T07:41:49.092Z,7.38
2022-08-29T07:46:41.877Z,6.35
2022-08-29T07:51:34.904Z,7.45
2022-08-29T07:56:37.626Z,8.30
2022-08-29T08:01:29.718Z,7.45
2022-08-29T08:06:24.919Z,7.53
2022-08-29T08:11:21.751Z,6.32
2022-08-29T08:16:18.841Z,8.43
2022-08-29T08:21:12.129Z,5.75
2022-08-29T08:26:04.373Z,5.78
2022-08-29T08:31:01.190Z,5.80
2022-08-29T08:35:57.192Z,5.03
2022-08-29T08:41:04.784Z,5.25
2022-08-29T08:45:58.417Z,6.03
2022-08-29T08:51:13.954Z,5.68
2022-08-29T08:56:33.611Z,5.30
2022-08-29T09:01:37.168Z,6.07
2022-08-29T09:06:31.673Z,5.70
2022-08-29T13:41:36.060Z,4.93
2022-08-29T13:51:38.961Z,6.95
2022-08-29T14:22:13.404Z,4.13
2022-08-29T14:42:27.242Z,4.90
2022-08-29T14:47:21.301Z,3.40
2022-08-29T15:02:30.960Z,4.35
2022-08-29T15:27:58.140Z,4.65
2022-08-29T15:38:10.696Z,4.22
2022-08-29T15:48:11.541Z,3.65
2022-08-29T15:53:04.700Z,4.10
2022-08-29T16:18:29.280Z,3.50
2022-08-29T16:23:21.899Z,4.32
2022-08-29T16:38:29.088Z,4.95
2022-08-29T16:59:06.167Z,6.25
2022-08-29T17:19:33.160Z,4.43
2022-08-29T17:24:26.610Z,4.10
2022-08-29T17:29:19.836Z,3.80
2022-08-29T17:49:36.627Z,4.15
2022-08-29T17:54:29.229Z,5.13
2022-08-29T17:59:24.597Z,4.32
2022-08-29T18:04:18.111Z,4.10
2022-08-29T18:09:11.003Z,6.10
2022-08-29T18:14:02.817Z,5.22
2022-08-29T18:34:16.206Z,5.13
2022-08-29T18:39:10.859Z,6.18
2022-08-29T18:44:08.690Z,6.57
2022-08-29T18:49:02.325Z,4.32
2022-08-29T18:53:55.329Z,5.00
2022-08-29T18:58:47.909Z,6.22
2022-08-29T19:03:47.272Z,5.78
2022-08-29T19:08:43.905Z,6.43
2022-08-29T19:13:37.813Z,6.20
2022-08-29T19:23:44.581Z,5.60
2022-08-29T19:28:41.335Z,4.60
2022-08-29T19:33:36.989Z,5.15
2022-08-29T19:38:32.445Z,5.32
2022-08-29T19:43:35.733Z,6.68
2022-08-29T19:48:29.168Z,6.30
2022-08-29T19:53:26.257Z,4.72
2022-08-29T19:58:20.971Z,5.40
2022-08-29T20:03:15.237Z,6.03
2022-08-29T20:08:10.755Z,6.85
2022-08-29T20:18:19.643Z,5.90
2022-08-29T20:23:14.855Z,6.63
2022-08-29T20:38:20.841Z,5.35
2022-08-29T20:53:40.083Z,6.45
2022-08-29T20:58:33.462Z,9.05
2022-08-29T21:03:44.706Z,7.85
2022-08-29T21:08:39.283Z,8.23
2022-08-29T21:13:41.394Z,6.85
2022-08-29T21:18:37.533Z,7.68
2022-08-29T21:23:29.682Z,9.88
2022-08-29T21:28:25.126Z,7.25
2022-08-29T21:33:19.236Z,8.13
2022-08-29T21:38:13.266Z,9.65
2022-08-29T21:43:07.419Z,7.47
2022-08-29T21:48:00.333Z,5.93
2022-08-29T21:52:53.808Z,6.22
2022-08-29T22:08:14.215Z,8.57
2022-08-29T22:13:10.425Z,6.63
2022-08-29T22:18:06.718Z,6.93
2022-08-29T22:28:13.562Z,6.38
2022-08-29T22:33:08.755Z,7.13
2022-08-29T22:38:05.662Z,6.57
2022-08-29T22:42:58.081Z,7.30
2022-08-29T22:47:53.525Z,8.35
2022-08-29T22:57:53.432Z,6.88
2022-08-29T23:02:47.675Z,6.53
2022-08-29T23:07:41.118Z,7.00
2022-08-29T23:28:21.726Z,5.93
2022-08-29T23:38:27.647Z,7.38
2022-08-29T23:48:29.343Z,7.03
2022-08-29T23:58:29.819Z,8.00
